sensor_id;sensor_type;location;lat;lon;timestamp;P1;durP1;ratioP1;P2;durP2;ratioP2
69534;SDS011;56754;51.568;5.048;2024-03-23T00:57:24;9.65;;;2.42;;
69534;SDS011;56754;51.568;5.048;2024-03-23T00:59:49;9.70;;;2.07;;
69534;SDS011;56754;51.568;5.048;2024-03-23T01:02:14;8.57;;;2.20;;
69534;SDS011;56754;51.568;5.048;2024-03-23T01:07:13;9.23;;;2.00;;
69534;SDS011;56754;51.568;5.048;2024-03-23T01:09:38;10.55;;;2.30;;
69534;SDS011;56754;51.568;5.048;2024-03-23T01:12:04;8.43;;;2.00;;
69534;SDS011;56754;51.568;5.048;2024-03-23T01:14:30;7.93;;;2.28;;
69534;SDS011;56754;51.568;5.048;2024-03-23T01:16:55;8.87;;;2.10;;
69534;SDS011;56754;51.568;5.048;2024-03-23T01:19:20;7.43;;;1.70;;
69534;SDS011;56754;51.568;5.048;2024-03-23T01:21:46;9.63;;;2.33;;
69534;SDS011;56754;51.568;5.048;2024-03-23T01:24:11;8.83;;;2.00;;
69534;SDS011;56754;51.568;5.048;2024-03-23T01:26:36;7.87;;;2.07;;
69534;SDS011;56754;51.568;5.048;2024-03-23T01:29:02;7.60;;;1.90;;
69534;SDS011;56754;51.568;5.048;2024-03-23T01:31:27;7.67;;;2.10;;
69534;SDS011;56754;51.568;5.048;2024-03-23T01:33:52;7.07;;;2.03;;
69534;SDS011;56754;51.568;5.048;2024-03-23T01:36:17;8.37;;;1.80;;
69534;SDS011;56754;51.568;5.048;2024-03-23T01:38:43;8.97;;;1.73;;
69534;SDS011;56754;51.568;5.048;2024-03-23T01:41:08;7.07;;;2.10;;
69534;SDS011;56754;51.568;5.048;2024-03-23T01:43:34;10.33;;;2.27;;
69534;SDS011;56754;51.568;5.048;2024-03-23T01:46:00;9.68;;;1.95;;
69534;SDS011;56754;51.568;5.048;2024-03-23T01:48:25;8.03;;;2.03;;
69534;SDS011;56754;51.568;5.048;2024-03-23T01:50:50;10.50;;;2.13;;
69534;SDS011;56754;51.568;5.048;2024-03-23T01:53:15;8.80;;;1.80;;
69534;SDS011;56754;51.568;5.048;2024-03-23T01:55:41;9.18;;;1.88;;
69534;SDS011;56754;51.568;5.048;2024-03-23T01:58:06;7.57;;;1.70;;
69534;SDS011;56754;51.568;5.048;2024-03-23T02:00:32;8.87;;;2.00;;
69534;SDS011;56754;51.568;5.048;2024-03-23T02:03:00;9.50;;;1.50;;
69534;SDS011;56754;51.568;5.048;2024-03-23T02:05:25;8.75;;;1.58;;
69534;SDS011;56754;51.568;5.048;2024-03-23T02:07:50;7.97;;;1.70;;
69534;SDS011;56754;51.568;5.048;2024-03-23T02:10:16;9.37;;;1.93;;
69534;SDS011;56754;51.568;5.048;2024-03-23T02:12:41;5.87;;;1.60;;
69534;SDS011;56754;51.568;5.048;2024-03-23T02:15:06;7.45;;;1.40;;
69534;SDS011;56754;51.568;5.048;2024-03-23T02:17:33;9.33;;;1.67;;
69534;SDS011;56754;51.568;5.048;2024-03-23T02:19:59;7.28;;;1.60;;
69534;SDS011;56754;51.568;5.048;2024-03-23T02:22:25;6.83;;;1.40;;
69534;SDS011;56754;51.568;5.048;2024-03-23T02:24:50;9.98;;;1.50;;
69534;SDS011;56754;51.568;5.048;2024-03-23T02:27:15;6.67;;;1.43;;
69534;SDS011;56754;51.568;5.048;2024-03-23T02:29:41;9.63;;;1.70;;
69534;SDS011;56754;51.568;5.048;2024-03-23T02:32:07;7.70;;;1.57;;
69534;SDS011;56754;51.568;5.048;2024-03-23T02:34:32;8.00;;;1.60;;
69534;SDS011;56754;51.568;5.048;2024-03-23T02:36:58;7.33;;;1.60;;
69534;SDS011;56754;51.568;5.048;2024-03-23T02:39:23;6.20;;;1.30;;
69534;SDS011;56754;51.568;5.048;2024-03-23T02:41:48;9.27;;;1.40;;
69534;SDS011;56754;51.568;5.048;2024-03-23T02:46:58;6.18;;;1.40;;
69534;SDS011;56754;51.568;5.048;2024-03-23T02:49:23;10.00;;;1.73;;
69534;SDS011;56754;51.568;5.048;2024-03-23T02:51:49;7.33;;;1.37;;
69534;SDS011;56754;51.568;5.048;2024-03-23T02:54:14;5.82;;;1.38;;
69534;SDS011;56754;51.568;5.048;2024-03-23T02:56:40;8.30;;;1.43;;
69534;SDS011;56754;51.568;5.048;2024-03-23T02:59:07;8.50;;;1.50;;
69534;SDS011;56754;51.568;5.048;2024-03-23T03:01:32;6.73;;;1.37;;
69534;SDS011;56754;51.568;5.048;2024-03-23T03:03:57;6.07;;;1.30;;
69534;SDS011;56754;51.568;5.048;2024-03-23T03:06:23;10.18;;;1.38;;
69534;SDS011;56754;51.568;5.048;2024-03-23T03:08:49;6.20;;;1.07;;
69534;SDS011;56754;51.568;5.048;2024-03-23T03:11:15;7.70;;;1.30;;
69534;SDS011;56754;51.568;5.048;2024-03-23T03:13:40;8.93;;;1.80;;
69534;SDS011;56754;51.568;5.048;2024-03-23T03:16:08;7.73;;;1.50;;
69534;SDS011;56754;51.568;5.048;2024-03-23T03:21:18;7.65;;;1.45;;
69534;SDS011;56754;51.568;5.048;2024-03-23T03:23:44;6.70;;;1.07;;
69534;SDS011;56754;51.568;5.048;2024-03-23T03:26:09;6.65;;;1.70;;
69534;SDS011;56754;51.568;5.048;2024-03-23T03:28:35;8.77;;;1.60;;
69534;SDS011;56754;51.568;5.048;2024-03-23T03:31:00;6.90;;;1.30;;
69534;SDS011;56754;51.568;5.048;2024-03-23T03:33:28;7.00;;;1.40;;
69534;SDS011;56754;51.568;5.048;2024-03-23T03:35:54;8.80;;;1.35;;
69534;SDS011;56754;51.568;5.048;2024-03-23T03:41:03;6.28;;;1.35;;
69534;SDS011;56754;51.568;5.048;2024-03-23T03:43:29;7.83;;;1.30;;
69534;SDS011;56754;51.568;5.048;2024-03-23T03:45:56;6.90;;;1.70;;
69534;SDS011;56754;51.568;5.048;2024-03-23T03:48:22;7.78;;;1.40;;
69534;SDS011;56754;51.568;5.048;2024-03-23T03:50:48;5.87;;;1.20;;
69534;SDS011;56754;51.568;5.048;2024-03-23T03:53:14;7.57;;;1.27;;
69534;SDS011;56754;51.568;5.048;2024-03-23T03:55:39;6.30;;;1.20;;
69534;SDS011;56754;51.568;5.048;2024-03-23T03:58:05;9.13;;;1.70;;
69534;SDS011;56754;51.568;5.048;2024-03-23T04:00:30;7.17;;;1.70;;
69534;SDS011;56754;51.568;5.048;2024-03-23T04:02:56;6.90;;;1.30;;
69534;SDS011;56754;51.568;5.048;2024-03-23T04:05:22;7.18;;;1.17;;
69534;SDS011;56754;51.568;5.048;2024-03-23T04:07:47;7.43;;;1.60;;
69534;SDS011;56754;51.568;5.048;2024-03-23T04:10:13;7.60;;;1.20;;
69534;SDS011;56754;51.568;5.048;2024-03-23T04:12:38;6.60;;;1.50;;
69534;SDS011;56754;51.568;5.048;2024-03-23T04:15:03;9.93;;;1.93;;
69534;SDS011;56754;51.568;5.048;2024-03-23T04:17:29;6.80;;;1.60;;
69534;SDS011;56754;51.568;5.048;2024-03-23T04:19:55;7.53;;;1.60;;
69534;SDS011;56754;51.568;5.048;2024-03-23T04:22:21;9.37;;;1.20;;
69534;SDS011;56754;51.568;5.048;2024-03-23T04:24:46;8.13;;;1.60;;
69534;SDS011;56754;51.568;5.048;2024-03-23T04:27:11;7.97;;;1.70;;
69534;SDS011;56754;51.568;5.048;2024-03-23T04:29:37;9.00;;;1.67;;
69534;SDS011;56754;51.568;5.048;2024-03-23T04:32:02;7.87;;;1.40;;
69534;SDS011;56754;51.568;5.048;2024-03-23T04:34:27;9.43;;;1.53;;
69534;SDS011;56754;51.568;5.048;2024-03-23T04:36:53;10.57;;;1.77;;
69534;SDS011;56754;51.568;5.048;2024-03-23T04:39:18;8.67;;;1.60;;
69534;SDS011;56754;51.568;5.048;2024-03-23T04:41:43;6.37;;;1.47;;
69534;SDS011;56754;51.568;5.048;2024-03-23T04:44:08;10.83;;;1.63;;
69534;SDS011;56754;51.568;5.048;2024-03-23T04:46:34;11.57;;;2.03;;
69534;SDS011;56754;51.568;5.048;2024-03-23T04:48:59;7.10;;;1.60;;
69534;SDS011;56754;51.568;5.048;2024-03-23T04:54:08;8.60;;;1.80;;
69534;SDS011;56754;51.568;5.048;2024-03-23T04:56:34;6.27;;;1.50;;
69534;SDS011;56754;51.568;5.048;2024-03-23T04:59:05;7.93;;;1.80;;
69534;SDS011;56754;51.568;5.048;2024-03-23T05:01:31;7.75;;;1.60;;
69534;SDS011;56754;51.568;5.048;2024-03-23T05:03:56;8.93;;;1.58;;
69534;SDS011;56754;51.568;5.048;2024-03-23T05:06:22;9.80;;;1.83;;
69534;SDS011;56754;51.568;5.048;2024-03-23T05:08:48;5.50;;;1.63;;
69534;SDS011;56754;51.568;5.048;2024-03-23T05:11:13;6.93;;;1.90;;
69534;SDS011;56754;51.568;5.048;2024-03-23T05:13:38;9.13;;;1.93;;
69534;SDS011;56754;51.568;5.048;2024-03-23T05:16:04;9.63;;;2.00;;
69534;SDS011;56754;51.568;5.048;2024-03-23T05:18:29;8.43;;;1.83;;
69534;SDS011;56754;51.568;5.048;2024-03-23T05:20:56;6.75;;;1.85;;
69534;SDS011;56754;51.568;5.048;2024-03-23T05:23:23;9.77;;;2.17;;
69534;SDS011;56754;51.568;5.048;2024-03-23T05:25:49;10.38;;;2.50;;
69534;SDS011;56754;51.568;5.048;2024-03-23T05:28:14;7.13;;;1.90;;
69534;SDS011;56754;51.568;5.048;2024-03-23T05:30:42;8.17;;;1.60;;
69534;SDS011;56754;51.568;5.048;2024-03-23T05:33:08;6.55;;;2.10;;
69534;SDS011;56754;51.568;5.048;2024-03-23T05:35:33;6.53;;;1.87;;
69534;SDS011;56754;51.568;5.048;2024-03-23T05:37:58;8.07;;;1.80;;
69534;SDS011;56754;51.568;5.048;2024-03-23T05:43:17;7.15;;;1.67;;
69534;SDS011;56754;51.568;5.048;2024-03-23T05:45:42;12.67;;;2.30;;
69534;SDS011;56754;51.568;5.048;2024-03-23T05:48:08;10.23;;;2.23;;
69534;SDS011;56754;51.568;5.048;2024-03-23T05:50:33;6.43;;;1.50;;
69534;SDS011;56754;51.568;5.048;2024-03-23T05:52:58;9.30;;;1.57;;
69534;SDS011;56754;51.568;5.048;2024-03-23T05:55:23;7.03;;;1.85;;
69534;SDS011;56754;51.568;5.048;2024-03-23T05:57:49;10.23;;;2.00;;
69534;SDS011;56754;51.568;5.048;2024-03-23T06:00:14;7.00;;;1.60;;
69534;SDS011;56754;51.568;5.048;2024-03-23T06:02:39;10.13;;;1.83;;
69534;SDS011;56754;51.568;5.048;2024-03-23T06:05:05;8.47;;;1.70;;
69534;SDS011;56754;51.568;5.048;2024-03-23T06:07:30;10.73;;;1.73;;
69534;SDS011;56754;51.568;5.048;2024-03-23T06:09:56;9.20;;;1.80;;
69534;SDS011;56754;51.568;5.048;2024-03-23T06:12:21;8.55;;;1.77;;
69534;SDS011;56754;51.568;5.048;2024-03-23T06:14:47;7.43;;;1.43;;
69534;SDS011;56754;51.568;5.048;2024-03-23T06:17:12;6.68;;;1.38;;
69534;SDS011;56754;51.568;5.048;2024-03-23T06:19:37;6.73;;;1.40;;
69534;SDS011;56754;51.568;5.048;2024-03-23T06:22:03;9.20;;;1.30;;
69534;SDS011;56754;51.568;5.048;2024-03-23T06:24:28;6.73;;;1.40;;
69534;SDS011;56754;51.568;5.048;2024-03-23T06:26:53;8.30;;;1.57;;
69534;SDS011;56754;51.568;5.048;2024-03-23T06:29:24;7.60;;;1.40;;
69534;SDS011;56754;51.568;5.048;2024-03-23T06:31:53;7.70;;;1.83;;
69534;SDS011;56754;51.568;5.048;2024-03-23T06:34:19;10.52;;;2.05;;
69534;SDS011;56754;51.568;5.048;2024-03-23T06:36:44;7.73;;;1.00;;
69534;SDS011;56754;51.568;5.048;2024-03-23T06:39:09;6.47;;;1.07;;
69534;SDS011;56754;51.568;5.048;2024-03-23T06:41:36;7.30;;;1.43;;
69534;SDS011;56754;51.568;5.048;2024-03-23T06:44:02;8.00;;;1.30;;
69534;SDS011;56754;51.568;5.048;2024-03-23T06:46:28;5.38;;;1.17;;
69534;SDS011;56754;51.568;5.048;2024-03-23T06:48:53;5.53;;;1.00;;
69534;SDS011;56754;51.568;5.048;2024-03-23T06:51:18;6.33;;;0.97;;
69534;SDS011;56754;51.568;5.048;2024-03-23T06:53:44;7.40;;;1.33;;
69534;SDS011;56754;51.568;5.048;2024-03-23T06:56:09;7.50;;;1.30;;
69534;SDS011;56754;51.568;5.048;2024-03-23T06:58:34;7.50;;;0.93;;
69534;SDS011;56754;51.568;5.048;2024-03-23T07:00:59;8.90;;;1.23;;
69534;SDS011;56754;51.568;5.048;2024-03-23T07:03:25;7.07;;;1.00;;
69534;SDS011;56754;51.568;5.048;2024-03-23T07:05:50;10.00;;;1.00;;
69534;SDS011;56754;51.568;5.048;2024-03-23T07:08:15;8.90;;;1.23;;
69534;SDS011;56754;51.568;5.048;2024-03-23T07:10:40;7.33;;;0.87;;
69534;SDS011;56754;51.568;5.048;2024-03-23T07:13:06;7.57;;;1.07;;
69534;SDS011;56754;51.568;5.048;2024-03-23T07:15:32;9.43;;;1.23;;
69534;SDS011;56754;51.568;5.048;2024-03-23T07:17:57;9.98;;;1.38;;
69534;SDS011;56754;51.568;5.048;2024-03-23T07:20:23;8.33;;;1.43;;
69534;SDS011;56754;51.568;5.048;2024-03-23T07:22:48;8.27;;;1.40;;
69534;SDS011;56754;51.568;5.048;2024-03-23T07:25:15;8.57;;;1.20;;
69534;SDS011;56754;51.568;5.048;2024-03-23T07:27:41;8.67;;;1.30;;
69534;SDS011;56754;51.568;5.048;2024-03-23T07:30:06;9.73;;;1.33;;
69534;SDS011;56754;51.568;5.048;2024-03-23T07:32:32;7.83;;;1.00;;
69534;SDS011;56754;51.568;5.048;2024-03-23T07:34:57;8.75;;;1.20;;
69534;SDS011;56754;51.568;5.048;2024-03-23T07:37:25;6.83;;;1.17;;
69534;SDS011;56754;51.568;5.048;2024-03-23T07:39:50;7.65;;;1.10;;
69534;SDS011;56754;51.568;5.048;2024-03-23T07:42:15;8.57;;;1.00;;
69534;SDS011;56754;51.568;5.048;2024-03-23T07:44:41;7.13;;;0.98;;
69534;SDS011;56754;51.568;5.048;2024-03-23T07:47:06;7.33;;;1.20;;
69534;SDS011;56754;51.568;5.048;2024-03-23T07:49:32;9.90;;;0.90;;
69534;SDS011;56754;51.568;5.048;2024-03-23T07:51:57;4.83;;;0.80;;
69534;SDS011;56754;51.568;5.048;2024-03-23T07:54:22;5.90;;;0.82;;
69534;SDS011;56754;51.568;5.048;2024-03-23T07:56:49;7.20;;;1.03;;
69534;SDS011;56754;51.568;5.048;2024-03-23T07:59:14;5.88;;;1.08;;
69534;SDS011;56754;51.568;5.048;2024-03-23T08:01:39;6.10;;;0.93;;
69534;SDS011;56754;51.568;5.048;2024-03-23T08:04:06;7.10;;;1.13;;
69534;SDS011;56754;51.568;5.048;2024-03-23T08:06:32;6.45;;;1.13;;
69534;SDS011;56754;51.568;5.048;2024-03-23T08:08:57;8.03;;;1.10;;
69534;SDS011;56754;51.568;5.048;2024-03-23T08:11:23;6.50;;;1.30;;
69534;SDS011;56754;51.568;5.048;2024-03-23T08:13:48;9.68;;;1.10;;
69534;SDS011;56754;51.568;5.048;2024-03-23T08:18:58;9.03;;;1.50;;
69534;SDS011;56754;51.568;5.048;2024-03-23T08:21:27;10.45;;;0.98;;
69534;SDS011;56754;51.568;5.048;2024-03-23T08:23:52;6.80;;;1.00;;
69534;SDS011;56754;51.568;5.048;2024-03-23T08:26:17;9.30;;;1.17;;
69534;SDS011;56754;51.568;5.048;2024-03-23T08:28:43;7.03;;;0.90;;
69534;SDS011;56754;51.568;5.048;2024-03-23T08:31:11;7.57;;;1.03;;
69534;SDS011;56754;51.568;5.048;2024-03-23T08:33:38;6.88;;;1.05;;
69534;SDS011;56754;51.568;5.048;2024-03-23T08:36:04;5.82;;;0.93;;
69534;SDS011;56754;51.568;5.048;2024-03-23T08:38:32;8.73;;;0.80;;
69534;SDS011;56754;51.568;5.048;2024-03-23T08:43:25;8.05;;;0.70;;
69534;SDS011;56754;51.568;5.048;2024-03-23T08:45:52;5.93;;;0.77;;
69534;SDS011;56754;51.568;5.048;2024-03-23T08:48:20;6.95;;;1.00;;
69534;SDS011;56754;51.568;5.048;2024-03-23T08:50:46;5.03;;;0.63;;
69534;SDS011;56754;51.568;5.048;2024-03-23T08:53:12;5.72;;;0.80;;
69534;SDS011;56754;51.568;5.048;2024-03-23T08:55:37;5.63;;;0.80;;
69534;SDS011;56754;51.568;5.048;2024-03-23T08:58:02;7.60;;;0.87;;
69534;SDS011;56754;51.568;5.048;2024-03-23T09:00:28;6.13;;;0.77;;
69534;SDS011;56754;51.568;5.048;2024-03-23T09:02:54;4.50;;;0.63;;
69534;SDS011;56754;51.568;5.048;2024-03-23T09:05:19;7.83;;;1.20;;
69534;SDS011;56754;51.568;5.048;2024-03-23T09:07:44;8.37;;;1.13;;
69534;SDS011;56754;51.568;5.048;2024-03-23T09:10:09;8.70;;;1.05;;
69534;SDS011;56754;51.568;5.048;2024-03-23T09:12:35;6.77;;;0.83;;
69534;SDS011;56754;51.568;5.048;2024-03-23T09:15:00;7.60;;;1.23;;
69534;SDS011;56754;51.568;5.048;2024-03-23T09:17:25;5.67;;;1.10;;
69534;SDS011;56754;51.568;5.048;2024-03-23T09:22:35;7.95;;;1.00;;
69534;SDS011;56754;51.568;5.048;2024-03-23T09:27:46;5.68;;;0.70;;
69534;SDS011;56754;51.568;5.048;2024-03-23T09:30:12;7.90;;;1.00;;
69534;SDS011;56754;51.568;5.048;2024-03-23T09:32:38;7.57;;;0.90;;
69534;SDS011;56754;51.568;5.048;2024-03-23T09:35:04;7.82;;;0.85;;
69534;SDS011;56754;51.568;5.048;2024-03-23T09:37:29;6.87;;;1.10;;
69534;SDS011;56754;51.568;5.048;2024-03-23T09:39:55;9.00;;;1.33;;
69534;SDS011;56754;51.568;5.048;2024-03-23T09:45:05;7.13;;;0.80;;
69534;SDS011;56754;51.568;5.048;2024-03-23T09:47:34;6.45;;;0.68;;
69534;SDS011;56754;51.568;5.048;2024-03-23T09:50:01;5.33;;;0.73;;
69534;SDS011;56754;51.568;5.048;2024-03-23T09:52:26;9.38;;;1.42;;
69534;SDS011;56754;51.568;5.048;2024-03-23T09:54:53;5.77;;;0.67;;
69534;SDS011;56754;51.568;5.048;2024-03-23T09:57:18;8.25;;;0.90;;
69534;SDS011;56754;51.568;5.048;2024-03-23T09:59:44;5.57;;;0.80;;
69534;SDS011;56754;51.568;5.048;2024-03-23T10:02:10;7.17;;;0.87;;
69534;SDS011;56754;51.568;5.048;2024-03-23T10:04:37;6.22;;;1.08;;
69534;SDS011;56754;51.568;5.048;2024-03-23T10:07:10;6.23;;;0.70;;
69534;SDS011;56754;51.568;5.048;2024-03-23T10:09:36;6.43;;;1.13;;
69534;SDS011;56754;51.568;5.048;2024-03-23T10:12:11;9.00;;;1.00;;
69534;SDS011;56754;51.568;5.048;2024-03-23T10:14:41;6.82;;;0.77;;
69534;SDS011;56754;51.568;5.048;2024-03-23T10:17:17;5.77;;;0.73;;
69534;SDS011;56754;51.568;5.048;2024-03-23T10:19:48;6.00;;;0.52;;
69534;SDS011;56754;51.568;5.048;2024-03-23T10:22:18;5.30;;;0.70;;
69534;SDS011;56754;51.568;5.048;2024-03-23T10:24:43;5.30;;;0.60;;
69534;SDS011;56754;51.568;5.048;2024-03-23T10:27:09;6.30;;;0.60;;
69534;SDS011;56754;51.568;5.048;2024-03-23T10:29:34;5.93;;;0.90;;
69534;SDS011;56754;51.568;5.048;2024-03-23T10:32:12;7.50;;;0.77;;
69534;SDS011;56754;51.568;5.048;2024-03-23T10:34:38;6.13;;;0.70;;
69534;SDS011;56754;51.568;5.048;2024-03-23T10:37:04;6.60;;;0.75;;
69534;SDS011;56754;51.568;5.048;2024-03-23T10:39:34;5.68;;;0.98;;
69534;SDS011;56754;51.568;5.048;2024-03-23T10:42:18;5.70;;;0.65;;
69534;SDS011;56754;51.568;5.048;2024-03-23T10:44:44;3.67;;;0.60;;
69534;SDS011;56754;51.568;5.048;2024-03-23T10:47:09;7.17;;;0.77;;
69534;SDS011;56754;51.568;5.048;2024-03-23T10:49:39;6.15;;;0.80;;
69534;SDS011;56754;51.568;5.048;2024-03-23T10:52:06;7.07;;;0.90;;
69534;SDS011;56754;51.568;5.048;2024-03-23T10:54:32;4.95;;;0.77;;
69534;SDS011;56754;51.568;5.048;2024-03-23T10:59:46;4.40;;;0.55;;
69534;SDS011;56754;51.568;5.048;2024-03-23T11:04:56;6.88;;;0.93;;
69534;SDS011;56754;51.568;5.048;2024-03-23T11:10:24;4.78;;;0.57;;
69534;SDS011;56754;51.568;5.048;2024-03-23T11:12:51;4.90;;;0.50;;
69534;SDS011;56754;51.568;5.048;2024-03-23T11:15:17;4.30;;;0.77;;
69534;SDS011;56754;51.568;5.048;2024-03-23T11:17:43;4.95;;;0.50;;
69534;SDS011;56754;51.568;5.048;2024-03-23T11:20:34;2.20;;;0.30;;
69534;SDS011;56754;51.568;5.048;2024-03-23T11:26:02;2.50;;;0.28;;
69534;SDS011;56754;51.568;5.048;2024-03-23T11:28:31;2.85;;;0.32;;
69534;SDS011;56754;51.568;5.048;2024-03-23T11:30:56;3.10;;;0.40;;
69534;SDS011;56754;51.568;5.048;2024-03-23T11:33:22;3.20;;;0.50;;
69534;SDS011;56754;51.568;5.048;2024-03-23T11:35:47;3.13;;;0.38;;
69534;SDS011;56754;51.568;5.048;2024-03-23T11:38:16;4.10;;;0.33;;
69534;SDS011;56754;51.568;5.048;2024-03-23T11:40:49;3.60;;;0.40;;
69534;SDS011;56754;51.568;5.048;2024-03-23T11:45:43;4.88;;;0.40;;
69534;SDS011;56754;51.568;5.048;2024-03-23T11:48:10;7.60;;;0.65;;
69534;SDS011;56754;51.568;5.048;2024-03-23T11:50:39;4.63;;;0.57;;
69534;SDS011;56754;51.568;5.048;2024-03-23T11:53:18;5.43;;;0.53;;
69534;SDS011;56754;51.568;5.048;2024-03-23T11:55:52;4.68;;;0.50;;
69534;SDS011;56754;51.568;5.048;2024-03-23T11:58:18;5.00;;;0.68;;
69534;SDS011;56754;51.568;5.048;2024-03-23T12:03:17;4.97;;;0.45;;
69534;SDS011;56754;51.568;5.048;2024-03-23T12:05:47;8.67;;;1.57;;
69534;SDS011;56754;51.568;5.048;2024-03-23T12:08:17;7.18;;;0.65;;
69534;SDS011;56754;51.568;5.048;2024-03-23T12:10:50;5.50;;;0.65;;
69534;SDS011;56754;51.568;5.048;2024-03-23T12:13:18;5.53;;;0.60;;
69534;SDS011;56754;51.568;5.048;2024-03-23T12:15:45;5.50;;;0.90;;
69534;SDS011;56754;51.568;5.048;2024-03-23T12:18:11;3.17;;;0.50;;
69534;SDS011;56754;51.568;5.048;2024-03-23T12:20:37;5.13;;;0.80;;
69534;SDS011;56754;51.568;5.048;2024-03-23T12:23:08;4.22;;;0.68;;
69534;SDS011;56754;51.568;5.048;2024-03-23T12:25:34;5.73;;;0.53;;
69534;SDS011;56754;51.568;5.048;2024-03-23T12:28:01;5.22;;;0.55;;
69534;SDS011;56754;51.568;5.048;2024-03-23T12:30:27;6.75;;;0.85;;
69534;SDS011;56754;51.568;5.048;2024-03-23T12:35:36;5.38;;;0.80;;
69534;SDS011;56754;51.568;5.048;2024-03-23T12:40:46;7.45;;;1.02;;
69534;SDS011;56754;51.568;5.048;2024-03-23T12:43:12;6.00;;;0.47;;
69534;SDS011;56754;51.568;5.048;2024-03-23T12:45:37;3.20;;;0.67;;
69534;SDS011;56754;51.568;5.048;2024-03-23T12:48:02;5.77;;;0.70;;
69534;SDS011;56754;51.568;5.048;2024-03-23T12:50:28;7.97;;;0.70;;
69534;SDS011;56754;51.568;5.048;2024-03-23T12:52:54;7.10;;;0.60;;
69534;SDS011;56754;51.568;5.048;2024-03-23T12:55:20;6.23;;;0.50;;
69534;SDS011;56754;51.568;5.048;2024-03-23T12:57:45;4.97;;;0.70;;
69534;SDS011;56754;51.568;5.048;2024-03-23T13:02:42;5.97;;;0.70;;
69534;SDS011;56754;51.568;5.048;2024-03-23T13:07:52;4.65;;;0.40;;
69534;SDS011;56754;51.568;5.048;2024-03-23T13:10:17;5.30;;;0.70;;
69534;SDS011;56754;51.568;5.048;2024-03-23T13:12:42;7.23;;;0.70;;
69534;SDS011;56754;51.568;5.048;2024-03-23T13:15:08;3.70;;;0.53;;
69534;SDS011;56754;51.568;5.048;2024-03-23T13:17:33;4.60;;;0.65;;
69534;SDS011;56754;51.568;5.048;2024-03-23T13:19:59;4.00;;;0.57;;
69534;SDS011;56754;51.568;5.048;2024-03-23T13:22:26;4.55;;;0.80;;
69534;SDS011;56754;51.568;5.048;2024-03-23T13:24:51;6.97;;;0.70;;
69534;SDS011;56754;51.568;5.048;2024-03-23T13:27:16;5.90;;;0.67;;
69534;SDS011;56754;51.568;5.048;2024-03-23T13:29:42;4.50;;;0.60;;
69534;SDS011;56754;51.568;5.048;2024-03-23T13:32:08;7.57;;;1.08;;
69534;SDS011;56754;51.568;5.048;2024-03-23T13:34:34;6.90;;;0.80;;
69534;SDS011;56754;51.568;5.048;2024-03-23T13:36:59;7.23;;;0.90;;
69534;SDS011;56754;51.568;5.048;2024-03-23T13:39:24;5.03;;;0.50;;
69534;SDS011;56754;51.568;5.048;2024-03-23T13:41:50;3.92;;;0.50;;
69534;SDS011;56754;51.568;5.048;2024-03-23T13:44:15;2.73;;;0.50;;
69534;SDS011;56754;51.568;5.048;2024-03-23T13:46:41;4.43;;;0.70;;
69534;SDS011;56754;51.568;5.048;2024-03-23T13:49:07;6.25;;;0.90;;
69534;SDS011;56754;51.568;5.048;2024-03-23T13:51:32;6.83;;;0.77;;
69534;SDS011;56754;51.568;5.048;2024-03-23T13:53:58;9.30;;;0.95;;
69534;SDS011;56754;51.568;5.048;2024-03-23T13:56:23;8.73;;;0.70;;
69534;SDS011;56754;51.568;5.048;2024-03-23T13:58:49;8.00;;;1.13;;
69534;SDS011;56754;51.568;5.048;2024-03-23T14:01:14;6.27;;;0.77;;
69534;SDS011;56754;51.568;5.048;2024-03-23T14:03:41;5.75;;;0.50;;
69534;SDS011;56754;51.568;5.048;2024-03-23T14:06:07;4.88;;;0.70;;
69534;SDS011;56754;51.568;5.048;2024-03-23T14:08:34;3.67;;;0.50;;
69534;SDS011;56754;51.568;5.048;2024-03-23T14:11:00;8.35;;;0.80;;
69534;SDS011;56754;51.568;5.048;2024-03-23T14:13:25;4.80;;;0.53;;
69534;SDS011;56754;51.568;5.048;2024-03-23T14:15:53;4.53;;;0.38;;
69534;SDS011;56754;51.568;5.048;2024-03-23T14:18:18;7.57;;;0.70;;
69534;SDS011;56754;51.568;5.048;2024-03-23T14:20:44;6.47;;;1.33;;
69534;SDS011;56754;51.568;5.048;2024-03-23T14:23:09;7.13;;;0.80;;
69534;SDS011;56754;51.568;5.048;2024-03-23T14:25:34;4.77;;;0.83;;
69534;SDS011;56754;51.568;5.048;2024-03-23T14:27:59;5.87;;;0.87;;
69534;SDS011;56754;51.568;5.048;2024-03-23T14:30:25;8.67;;;0.87;;
69534;SDS011;56754;51.568;5.048;2024-03-23T14:32:50;4.93;;;0.63;;
69534;SDS011;56754;51.568;5.048;2024-03-23T14:35:15;4.25;;;0.40;;
69534;SDS011;56754;51.568;5.048;2024-03-23T14:37:42;4.23;;;0.60;;
69534;SDS011;56754;51.568;5.048;2024-03-23T14:40:08;4.07;;;0.50;;
69534;SDS011;56754;51.568;5.048;2024-03-23T14:42:34;3.47;;;0.50;;
69534;SDS011;56754;51.568;5.048;2024-03-23T14:44:59;3.60;;;0.30;;
69534;SDS011;56754;51.568;5.048;2024-03-23T14:47:24;5.75;;;0.73;;
69534;SDS011;56754;51.568;5.048;2024-03-23T14:49:50;4.57;;;0.60;;
69534;SDS011;56754;51.568;5.048;2024-03-23T14:54:59;3.67;;;0.57;;
69534;SDS011;56754;51.568;5.048;2024-03-23T14:57:24;4.47;;;0.40;;
69534;SDS011;56754;51.568;5.048;2024-03-23T14:59:50;2.37;;;0.40;;
69534;SDS011;56754;51.568;5.048;2024-03-23T15:02:15;2.90;;;0.40;;
69534;SDS011;56754;51.568;5.048;2024-03-23T15:04:42;4.10;;;0.33;;
69534;SDS011;56754;51.568;5.048;2024-03-23T15:07:07;3.13;;;0.40;;
69534;SDS011;56754;51.568;5.048;2024-03-23T15:09:33;3.80;;;0.43;;
69534;SDS011;56754;51.568;5.048;2024-03-23T15:11:58;2.93;;;0.30;;
69534;SDS011;56754;51.568;5.048;2024-03-23T15:14:23;4.47;;;0.50;;
69534;SDS011;56754;51.568;5.048;2024-03-23T15:16:49;2.63;;;0.40;;
69534;SDS011;56754;51.568;5.048;2024-03-23T15:19:15;3.60;;;0.40;;
69534;SDS011;56754;51.568;5.048;2024-03-23T15:21:40;3.45;;;0.50;;
69534;SDS011;56754;51.568;5.048;2024-03-23T15:24:06;4.97;;;0.50;;
69534;SDS011;56754;51.568;5.048;2024-03-23T15:26:31;3.47;;;0.30;;
69534;SDS011;56754;51.568;5.048;2024-03-23T15:28:57;3.53;;;0.37;;
69534;SDS011;56754;51.568;5.048;2024-03-23T15:31:22;6.33;;;0.60;;
69534;SDS011;56754;51.568;5.048;2024-03-23T15:33:48;4.90;;;0.50;;
69534;SDS011;56754;51.568;5.048;2024-03-23T15:36:13;2.00;;;0.20;;
69534;SDS011;56754;51.568;5.048;2024-03-23T15:38:38;2.27;;;0.17;;
69534;SDS011;56754;51.568;5.048;2024-03-23T15:41:03;1.73;;;0.20;;
69534;SDS011;56754;51.568;5.048;2024-03-23T15:43:29;1.80;;;0.30;;
69534;SDS011;56754;51.568;5.048;2024-03-23T15:45:55;5.03;;;0.30;;
69534;SDS011;56754;51.568;5.048;2024-03-23T15:48:21;3.45;;;0.28;;
69534;SDS011;56754;51.568;5.048;2024-03-23T15:50:52;3.70;;;0.40;;
69534;SDS011;56754;51.568;5.048;2024-03-23T15:53:19;2.65;;;0.30;;
69534;SDS011;56754;51.568;5.048;2024-03-23T15:55:44;2.63;;;0.32;;
69534;SDS011;56754;51.568;5.048;2024-03-23T15:58:10;1.73;;;0.30;;
69534;SDS011;56754;51.568;5.048;2024-03-23T16:00:36;3.63;;;0.30;;
69534;SDS011;56754;51.568;5.048;2024-03-23T16:03:03;1.77;;;0.20;;
69534;SDS011;56754;51.568;5.048;2024-03-23T16:05:29;3.25;;;0.38;;
69534;SDS011;56754;51.568;5.048;2024-03-23T16:07:56;2.60;;;0.30;;
69534;SDS011;56754;51.568;5.048;2024-03-23T16:10:21;3.55;;;0.52;;
69534;SDS011;56754;51.568;5.048;2024-03-23T16:12:46;2.83;;;0.50;;
69534;SDS011;56754;51.568;5.048;2024-03-23T16:15:12;2.27;;;0.30;;
69534;SDS011;56754;51.568;5.048;2024-03-23T16:17:37;2.70;;;0.30;;
69534;SDS011;56754;51.568;5.048;2024-03-23T16:20:05;2.63;;;0.60;;
69534;SDS011;56754;51.568;5.048;2024-03-23T16:22:32;4.53;;;0.30;;
69534;SDS011;56754;51.568;5.048;2024-03-23T16:24:57;6.13;;;0.40;;
69534;SDS011;56754;51.568;5.048;2024-03-23T16:27:24;2.27;;;0.30;;
69534;SDS011;56754;51.568;5.048;2024-03-23T16:29:50;4.18;;;0.30;;
69534;SDS011;56754;51.568;5.048;2024-03-23T16:32:15;3.73;;;0.60;;
69534;SDS011;56754;51.568;5.048;2024-03-23T16:34:40;1.87;;;0.33;;
69534;SDS011;56754;51.568;5.048;2024-03-23T16:37:06;2.47;;;0.40;;